sensor_id;sensor_type;location;lat;lon;timestamp;temperature;humidity
54429;DHT22;40337;52.978;6.310;2024-03-06T00:01:50;6.70;99.90
54429;DHT22;40337;52.978;6.310;2024-03-06T00:04:16;6.70;99.90
54429;DHT22;40337;52.978;6.310;2024-03-06T00:06:41;6.70;99.90
54429;DHT22;40337;52.978;6.310;2024-03-06T00:09:07;6.70;99.90
54429;DHT22;40337;52.978;6.310;2024-03-06T00:11:34;6.70;99.90
54429;DHT22;40337;52.978;6.310;2024-03-06T00:14:02;6.70;99.90
54429;DHT22;40337;52.978;6.310;2024-03-06T00:16:28;6.60;99.90
54429;DHT22;40337;52.978;6.310;2024-03-06T00:18:53;6.70;99.90
54429;DHT22;40337;52.978;6.310;2024-03-06T00:21:19;6.60;99.90
54429;DHT22;40337;52.978;6.310;2024-03-06T00:23:45;6.70;99.90
54429;DHT22;40337;52.978;6.310;2024-03-06T00:26:11;6.60;99.90
54429;DHT22;40337;52.978;6.310;2024-03-06T00:28:38;6.60;99.90
54429;DHT22;40337;52.978;6.310;2024-03-06T00:31:07;6.60;99.90
54429;DHT22;40337;52.978;6.310;2024-03-06T00:33:33;6.60;99.90
54429;DHT22;40337;52.978;6.310;2024-03-06T00:35:58;6.60;99.90
54429;DHT22;40337;52.978;6.310;2024-03-06T00:38:24;6.60;99.90
54429;DHT22;40337;52.978;6.310;2024-03-06T00:40:50;6.60;99.90
54429;DHT22;40337;52.978;6.310;2024-03-06T00:43:15;6.60;99.90
54429;DHT22;40337;52.978;6.310;2024-03-06T00:45:41;6.60;99.90
54429;DHT22;40337;52.978;6.310;2024-03-06T00:48:07;6.50;99.90
54429;DHT22;40337;52.978;6.310;2024-03-06T00:50:33;6.50;99.90
54429;DHT22;40337;52.978;6.310;2024-03-06T00:52:59;6.50;99.90
54429;DHT22;40337;52.978;6.310;2024-03-06T00:55:24;6.50;99.90
54429;DHT22;40337;52.978;6.310;2024-03-06T00:57:50;6.50;99.90
54429;DHT22;40337;52.978;6.310;2024-03-06T01:00:16;6.50;99.90
54429;DHT22;40337;52.978;6.310;2024-03-06T01:02:42;6.50;99.90
54429;DHT22;40337;52.978;6.310;2024-03-06T01:05:07;6.50;99.90
54429;DHT22;40337;52.978;6.310;2024-03-06T01:07:36;6.50;99.90
54429;DHT22;40337;52.978;6.310;2024-03-06T01:10:03;6.50;99.90
54429;DHT22;40337;52.978;6.310;2024-03-06T01:12:29;6.40;99.90
54429;DHT22;40337;52.978;6.310;2024-03-06T01:14:55;6.40;99.90
54429;DHT22;40337;52.978;6.310;2024-03-06T01:17:21;6.40;99.90
54429;DHT22;40337;52.978;6.310;2024-03-06T01:19:46;6.40;99.90
54429;DHT22;40337;52.978;6.310;2024-03-06T01:22:12;6.40;99.90
54429;DHT22;40337;52.978;6.310;2024-03-06T01:24:41;6.40;99.90
54429;DHT22;40337;52.978;6.310;2024-03-06T01:27:06;6.40;99.90
54429;DHT22;40337;52.978;6.310;2024-03-06T01:29:32;6.40;99.90
54429;DHT22;40337;52.978;6.310;2024-03-06T01:31:58;6.30;99.90
54429;DHT22;40337;52.978;6.310;2024-03-06T01:34:25;6.30;99.90
54429;DHT22;40337;52.978;6.310;2024-03-06T01:36:55;6.30;99.90
54429;DHT22;40337;52.978;6.310;2024-03-06T01:39:21;6.40;99.90
54429;DHT22;40337;52.978;6.310;2024-03-06T01:41:47;6.40;99.90
54429;DHT22;40337;52.978;6.310;2024-03-06T01:44:17;6.30;99.90
54429;DHT22;40337;52.978;6.310;2024-03-06T01:46:44;6.40;99.90
54429;DHT22;40337;52.978;6.310;2024-03-06T01:49:12;6.30;99.90
54429;DHT22;40337;52.978;6.310;2024-03-06T01:51:43;6.30;99.90
54429;DHT22;40337;52.978;6.310;2024-03-06T01:54:10;6.30;99.90
54429;DHT22;40337;52.978;6.310;2024-03-06T01:56:39;6.30;99.90
54429;DHT22;40337;52.978;6.310;2024-03-06T01:59:08;6.30;99.90
54429;DHT22;40337;52.978;6.310;2024-03-06T02:01:33;6.30;99.90
54429;DHT22;40337;52.978;6.310;2024-03-06T02:03:59;6.30;99.90
54429;DHT22;40337;52.978;6.310;2024-03-06T02:06:26;6.30;99.90
54429;DHT22;40337;52.978;6.310;2024-03-06T02:08:52;6.30;99.90
54429;DHT22;40337;52.978;6.310;2024-03-06T02:11:17;6.30;99.90
54429;DHT22;40337;52.978;6.310;2024-03-06T02:13:43;6.20;99.90
54429;DHT22;40337;52.978;6.310;2024-03-06T02:16:10;6.20;99.90
54429;DHT22;40337;52.978;6.310;2024-03-06T02:18:36;6.20;99.90
54429;DHT22;40337;52.978;6.310;2024-03-06T02:21:02;6.20;99.90
54429;DHT22;40337;52.978;6.310;2024-03-06T02:23:30;6.20;99.90
54429;DHT22;40337;52.978;6.310;2024-03-06T02:25:56;6.20;99.90
54429;DHT22;40337;52.978;6.310;2024-03-06T02:28:22;6.20;99.90
54429;DHT22;40337;52.978;6.310;2024-03-06T02:30:51;6.20;99.90
54429;DHT22;40337;52.978;6.310;2024-03-06T02:33:16;6.20;99.90
54429;DHT22;40337;52.978;6.310;2024-03-06T02:35:43;6.20;99.90
54429;DHT22;40337;52.978;6.310;2024-03-06T02:38:10;6.20;99.90
54429;DHT22;40337;52.978;6.310;2024-03-06T02:40:36;6.20;99.90
54429;DHT22;40337;52.978;6.310;2024-03-06T02:43:01;6.20;99.90
54429;DHT22;40337;52.978;6.310;2024-03-06T02:45:27;6.20;99.90
54429;DHT22;40337;52.978;6.310;2024-03-06T02:47:52;6.10;99.90
54429;DHT22;40337;52.978;6.310;2024-03-06T02:50:18;6.20;99.90
54429;DHT22;40337;52.978;6.310;2024-03-06T02:52:44;6.20;99.90
54429;DHT22;40337;52.978;6.310;2024-03-06T02:55:09;6.20;99.90
54429;DHT22;40337;52.978;6.310;2024-03-06T02:57:35;6.20;99.90
54429;DHT22;40337;52.978;6.310;2024-03-06T03:00:00;6.20;99.90
54429;DHT22;40337;52.978;6.310;2024-03-06T03:02:26;6.20;99.90
54429;DHT22;40337;52.978;6.310;2024-03-06T03:04:52;6.20;99.90
54429;DHT22;40337;52.978;6.310;2024-03-06T03:07:21;6.20;99.90
54429;DHT22;40337;52.978;6.310;2024-03-06T03:09:47;6.20;99.90
54429;DHT22;40337;52.978;6.310;2024-03-06T03:12:13;6.20;99.90
54429;DHT22;40337;52.978;6.310;2024-03-06T03:14:40;6.20;99.90
54429;DHT22;40337;52.978;6.310;2024-03-06T03:17:06;6.20;99.90
54429;DHT22;40337;52.978;6.310;2024-03-06T03:19:32;6.20;99.90
54429;DHT22;40337;52.978;6.310;2024-03-06T03:21:59;6.20;99.90
54429;DHT22;40337;52.978;6.310;2024-03-06T03:24:25;6.20;99.90
54429;DHT22;40337;52.978;6.310;2024-03-06T03:26:51;6.20;99.90
54429;DHT22;40337;52.978;6.310;2024-03-06T03:29:17;6.20;99.90
54429;DHT22;40337;52.978;6.310;2024-03-06T03:31:43;6.20;99.90
54429;DHT22;40337;52.978;6.310;2024-03-06T03:34:09;6.20;99.90
54429;DHT22;40337;52.978;6.310;2024-03-06T03:36:42;6.10;99.90
54429;DHT22;40337;52.978;6.310;2024-03-06T03:39:10;6.20;99.90
54429;DHT22;40337;52.978;6.310;2024-03-06T03:41:45;6.10;99.90
54429;DHT22;40337;52.978;6.310;2024-03-06T03:44:14;6.20;99.90
54429;DHT22;40337;52.978;6.310;2024-03-06T03:46:40;6.20;99.90
54429;DHT22;40337;52.978;6.310;2024-03-06T03:49:06;6.20;99.90
54429;DHT22;40337;52.978;6.310;2024-03-06T03:51:32;6.20;99.90
54429;DHT22;40337;52.978;6.310;2024-03-06T03:53:58;6.20;99.90
54429;DHT22;40337;52.978;6.310;2024-03-06T03:56:23;6.10;99.90
54429;DHT22;40337;52.978;6.310;2024-03-06T03:58:49;6.20;99.90
54429;DHT22;40337;52.978;6.310;2024-03-06T04:01:15;6.20;99.90
54429;DHT22;40337;52.978;6.310;2024-03-06T04:03:40;6.20;99.90
54429;DHT22;40337;52.978;6.310;2024-03-06T04:06:08;6.10;99.90
54429;DHT22;40337;52.978;6.310;2024-03-06T04:08:34;6.20;99.90
54429;DHT22;40337;52.978;6.310;2024-03-06T04:10:59;6.10;99.90
54429;DHT22;40337;52.978;6.310;2024-03-06T04:13:25;6.10;99.90
54429;DHT22;40337;52.978;6.310;2024-03-06T04:15:51;6.20;99.90
54429;DHT22;40337;52.978;6.310;2024-03-06T04:18:17;6.20;99.90
54429;DHT22;40337;52.978;6.310;2024-03-06T04:20:42;6.10;99.90
54429;DHT22;40337;52.978;6.310;2024-03-06T04:23:08;6.10;99.90
54429;DHT22;40337;52.978;6.310;2024-03-06T04:25:34;6.10;99.90
54429;DHT22;40337;52.978;6.310;2024-03-06T04:28:00;6.10;99.90
54429;DHT22;40337;52.978;6.310;2024-03-06T04:30:26;6.10;99.90
54429;DHT22;40337;52.978;6.310;2024-03-06T04:32:52;6.10;99.90
54429;DHT22;40337;52.978;6.310;2024-03-06T04:35:17;6.10;99.90
54429;DHT22;40337;52.978;6.310;2024-03-06T04:37:43;6.10;99.90
54429;DHT22;40337;52.978;6.310;2024-03-06T04:40:09;6.10;99.90
54429;DHT22;40337;52.978;6.310;2024-03-06T04:42:35;6.10;99.90
54429;DHT22;40337;52.978;6.310;2024-03-06T04:45:11;6.10;99.90
54429;DHT22;40337;52.978;6.310;2024-03-06T04:47:37;6.10;99.90
54429;DHT22;40337;52.978;6.310;2024-03-06T04:50:03;6.10;99.90
54429;DHT22;40337;52.978;6.310;2024-03-06T04:52:33;6.10;99.90
54429;DHT22;40337;52.978;6.310;2024-03-06T04:55:00;6.10;99.90
54429;DHT22;40337;52.978;6.310;2024-03-06T04:57:25;6.10;99.90
54429;DHT22;40337;52.978;6.310;2024-03-06T04:59:52;6.10;99.90
54429;DHT22;40337;52.978;6.310;2024-03-06T05:02:17;6.10;99.90
54429;DHT22;40337;52.978;6.310;2024-03-06T05:04:43;6.10;99.90
54429;DHT22;40337;52.978;6.310;2024-03-06T05:07:09;6.10;99.90
54429;DHT22;40337;52.978;6.310;2024-03-06T05:09:34;6.10;99.90
54429;DHT22;40337;52.978;6.310;2024-03-06T05:12:01;6.10;99.90
54429;DHT22;40337;52.978;6.310;2024-03-06T05:14:26;6.10;99.90
54429;DHT22;40337;52.978;6.310;2024-03-06T05:16:52;6.10;99.90
54429;DHT22;40337;52.978;6.310;2024-03-06T05:19:18;6.10;99.90
54429;DHT22;40337;52.978;6.310;2024-03-06T05:21:45;6.10;99.90
54429;DHT22;40337;52.978;6.310;2024-03-06T05:24:11;6.00;99.90
54429;DHT22;40337;52.978;6.310;2024-03-06T05:26:36;6.10;99.90
54429;DHT22;40337;52.978;6.310;2024-03-06T05:29:02;6.10;99.90
54429;DHT22;40337;52.978;6.310;2024-03-06T05:31:28;6.00;99.90
54429;DHT22;40337;52.978;6.310;2024-03-06T05:33:54;6.10;99.90
54429;DHT22;40337;52.978;6.310;2024-03-06T05:36:19;6.10;99.90
54429;DHT22;40337;52.978;6.310;2024-03-06T05:38:45;6.10;99.90
54429;DHT22;40337;52.978;6.310;2024-03-06T05:41:11;6.10;99.90
54429;DHT22;40337;52.978;6.310;2024-03-06T05:43:37;6.10;99.90
54429;DHT22;40337;52.978;6.310;2024-03-06T05:46:02;6.10;99.90
54429;DHT22;40337;52.978;6.310;2024-03-06T05:48:28;6.10;99.90
54429;DHT22;40337;52.978;6.310;2024-03-06T05:50:53;6.10;99.90
54429;DHT22;40337;52.978;6.310;2024-03-06T05:53:19;6.00;99.90
54429;DHT22;40337;52.978;6.310;2024-03-06T05:55:45;6.00;99.90
54429;DHT22;40337;52.978;6.310;2024-03-06T05:58:11;6.00;99.90
54429;DHT22;40337;52.978;6.310;2024-03-06T06:00:37;6.00;99.90
54429;DHT22;40337;52.978;6.310;2024-03-06T06:03:03;6.10;99.90
54429;DHT22;40337;52.978;6.310;2024-03-06T06:05:29;6.00;99.90
54429;DHT22;40337;52.978;6.310;2024-03-06T06:07:54;6.00;99.90
54429;DHT22;40337;52.978;6.310;2024-03-06T06:10:20;6.00;99.90
54429;DHT22;40337;52.978;6.310;2024-03-06T06:12:46;6.10;99.90
54429;DHT22;40337;52.978;6.310;2024-03-06T06:15:11;6.00;99.90
54429;DHT22;40337;52.978;6.310;2024-03-06T06:17:37;6.00;99.90
54429;DHT22;40337;52.978;6.310;2024-03-06T06:20:06;6.00;99.90
54429;DHT22;40337;52.978;6.310;2024-03-06T06:22:36;6.00;99.90
54429;DHT22;40337;52.978;6.310;2024-03-06T06:25:01;6.10;99.90
54429;DHT22;40337;52.978;6.310;2024-03-06T06:27:29;6.00;99.90
54429;DHT22;40337;52.978;6.310;2024-03-06T06:29:54;6.00;99.90
54429;DHT22;40337;52.978;6.310;2024-03-06T06:32:21;6.00;99.90
54429;DHT22;40337;52.978;6.310;2024-03-06T06:34:46;6.00;99.90
54429;DHT22;40337;52.978;6.310;2024-03-06T06:37:12;6.00;99.90
54429;DHT22;40337;52.978;6.310;2024-03-06T06:39:38;5.90;99.90
54429;DHT22;40337;52.978;6.310;2024-03-06T06:42:04;6.00;99.90
54429;DHT22;40337;52.978;6.310;2024-03-06T06:44:29;6.00;99.90
54429;DHT22;40337;52.978;6.310;2024-03-06T06:46:55;6.00;99.90
54429;DHT22;40337;52.978;6.310;2024-03-06T06:49:21;5.90;99.90
54429;DHT22;40337;52.978;6.310;2024-03-06T06:51:47;6.00;99.90
54429;DHT22;40337;52.978;6.310;2024-03-06T06:54:15;6.00;99.90
54429;DHT22;40337;52.978;6.310;2024-03-06T06:56:42;6.00;99.90
54429;DHT22;40337;52.978;6.310;2024-03-06T06:59:07;6.00;99.90
54429;DHT22;40337;52.978;6.310;2024-03-06T07:01:33;6.10;99.90
54429;DHT22;40337;52.978;6.310;2024-03-06T07:03:59;6.10;99.90
54429;DHT22;40337;52.978;6.310;2024-03-06T07:06:24;6.10;99.90
54429;DHT22;40337;52.978;6.310;2024-03-06T07:08:50;6.10;99.90
54429;DHT22;40337;52.978;6.310;2024-03-06T07:11:19;6.10;99.90
54429;DHT22;40337;52.978;6.310;2024-03-06T07:13:45;6.10;99.90
54429;DHT22;40337;52.978;6.310;2024-03-06T07:16:11;6.10;99.90
54429;DHT22;40337;52.978;6.310;2024-03-06T07:18:37;6.10;99.90
54429;DHT22;40337;52.978;6.310;2024-03-06T07:21:02;6.10;99.90
54429;DHT22;40337;52.978;6.310;2024-03-06T07:23:28;6.10;99.90
54429;DHT22;40337;52.978;6.310;2024-03-06T07:25:54;6.10;99.90
54429;DHT22;40337;52.978;6.310;2024-03-06T07:28:20;6.10;99.90
54429;DHT22;40337;52.978;6.310;2024-03-06T07:30:46;6.10;99.90
54429;DHT22;40337;52.978;6.310;2024-03-06T07:33:12;6.20;99.90
54429;DHT22;40337;52.978;6.310;2024-03-06T07:35:39;6.20;99.90
54429;DHT22;40337;52.978;6.310;2024-03-06T07:38:05;6.20;99.90
54429;DHT22;40337;52.978;6.310;2024-03-06T07:40:31;6.20;99.90
54429;DHT22;40337;52.978;6.310;2024-03-06T07:42:57;6.20;99.90
54429;DHT22;40337;52.978;6.310;2024-03-06T07:45:25;6.20;99.90
54429;DHT22;40337;52.978;6.310;2024-03-06T07:47:51;6.30;99.90
54429;DHT22;40337;52.978;6.310;2024-03-06T07:50:17;6.30;99.90
54429;DHT22;40337;52.978;6.310;2024-03-06T07:52:46;6.30;99.90
54429;DHT22;40337;52.978;6.310;2024-03-06T07:55:12;6.30;99.90
54429;DHT22;40337;52.978;6.310;2024-03-06T07:57:37;6.30;99.90
54429;DHT22;40337;52.978;6.310;2024-03-06T08:00:07;6.30;99.90
54429;DHT22;40337;52.978;6.310;2024-03-06T08:02:47;6.40;99.90
54429;DHT22;40337;52.978;6.310;2024-03-06T08:05:15;6.40;99.90
54429;DHT22;40337;52.978;6.310;2024-03-06T08:07:41;6.30;99.90
54429;DHT22;40337;52.978;6.310;2024-03-06T08:10:09;6.40;99.90
54429;DHT22;40337;52.978;6.310;2024-03-06T08:12:35;6.40;99.90
54429;DHT22;40337;52.978;6.310;2024-03-06T08:15:00;6.40;99.90
54429;DHT22;40337;52.978;6.310;2024-03-06T08:17:28;6.40;99.90
54429;DHT22;40337;52.978;6.310;2024-03-06T08:19:54;6.40;99.90
54429;DHT22;40337;52.978;6.310;2024-03-06T08:22:20;6.40;99.90
54429;DHT22;40337;52.978;6.310;2024-03-06T08:24:46;6.40;99.90
54429;DHT22;40337;52.978;6.310;2024-03-06T08:27:11;6.30;99.90
54429;DHT22;40337;52.978;6.310;2024-03-06T08:29:37;6.30;99.90
54429;DHT22;40337;52.978;6.310;2024-03-06T08:32:03;6.30;99.90
54429;DHT22;40337;52.978;6.310;2024-03-06T08:34:29;6.30;99.90
54429;DHT22;40337;52.978;6.310;2024-03-06T08:36:54;6.30;99.90
54429;DHT22;40337;52.978;6.310;2024-03-06T08:39:20;6.30;99.90
54429;DHT22;40337;52.978;6.310;2024-03-06T08:41:46;6.40;99.90
54429;DHT22;40337;52.978;6.310;2024-03-06T08:44:11;6.40;99.90
54429;DHT22;40337;52.978;6.310;2024-03-06T08:46:37;6.40;99.90
54429;DHT22;40337;52.978;6.310;2024-03-06T08:49:03;6.40;99.90
54429;DHT22;40337;52.978;6.310;2024-03-06T08:51:28;6.40;99.90
54429;DHT22;40337;52.978;6.310;2024-03-06T08:53:54;6.40;99.90
54429;DHT22;40337;52.978;6.310;2024-03-06T08:56:19;6.40;99.90
54429;DHT22;40337;52.978;6.310;2024-03-06T08:58:45;6.40;99.90
54429;DHT22;40337;52.978;6.310;2024-03-06T09:01:11;6.40;99.90
54429;DHT22;40337;52.978;6.310;2024-03-06T09:03:36;6.40;99.90
54429;DHT22;40337;52.978;6.310;2024-03-06T09:06:02;6.40;99.90
54429;DHT22;40337;52.978;6.310;2024-03-06T09:08:28;6.40;99.90
54429;DHT22;40337;52.978;6.310;2024-03-06T09:10:54;6.50;99.90
54429;DHT22;40337;52.978;6.310;2024-03-06T09:13:19;6.50;99.90
54429;DHT22;40337;52.978;6.310;2024-03-06T09:15:45;6.60;99.90
54429;DHT22;40337;52.978;6.310;2024-03-06T09:18:11;6.60;99.90
54429;DHT22;40337;52.978;6.310;2024-03-06T09:20:36;6.60;99.90
54429;DHT22;40337;52.978;6.310;2024-03-06T09:23:02;6.70;99.90
54429;DHT22;40337;52.978;6.310;2024-03-06T09:25:28;6.70;99.90
54429;DHT22;40337;52.978;6.310;2024-03-06T09:27:54;6.70;99.90
54429;DHT22;40337;52.978;6.310;2024-03-06T09:30:19;6.80;99.90
54429;DHT22;40337;52.978;6.310;2024-03-06T09:32:45;6.80;99.90
54429;DHT22;40337;52.978;6.310;2024-03-06T09:35:11;6.80;99.90
54429;DHT22;40337;52.978;6.310;2024-03-06T09:37:37;6.90;99.90
54429;DHT22;40337;52.978;6.310;2024-03-06T09:40:03;6.90;99.90
54429;DHT22;40337;52.978;6.310;2024-03-06T09:42:29;6.90;99.90
54429;DHT22;40337;52.978;6.310;2024-03-06T09:44:55;6.90;99.90
54429;DHT22;40337;52.978;6.310;2024-03-06T09:47:22;6.90;99.90
54429;DHT22;40337;52.978;6.310;2024-03-06T09:49:52;7.00;99.90
54429;DHT22;40337;52.978;6.310;2024-03-06T09:52:22;7.00;99.90
54429;DHT22;40337;52.978;6.310;2024-03-06T09:54:50;7.10;99.90
54429;DHT22;40337;52.978;6.310;2024-03-06T09:57:17;7.10;99.90
54429;DHT22;40337;52.978;6.310;2024-03-06T09:59:43;7.10;99.90
54429;DHT22;40337;52.978;6.310;2024-03-06T10:02:39;7.10;99.90
54429;DHT22;40337;52.978;6.310;2024-03-06T10:05:03;7.10;99.90
54429;DHT22;40337;52.978;6.310;2024-03-06T10:07:29;7.10;99.90
54429;DHT22;40337;52.978;6.310;2024-03-06T10:09:55;7.10;99.90
54429;DHT22;40337;52.978;6.310;2024-03-06T10:12:21;7.20;99.90
54429;DHT22;40337;52.978;6.310;2024-03-06T10:14:50;7.20;99.90
54429;DHT22;40337;52.978;6.310;2024-03-06T10:17:20;7.20;99.90
54429;DHT22;40337;52.978;6.310;2024-03-06T10:19:49;7.20;99.90
54429;DHT22;40337;52.978;6.310;2024-03-06T10:22:21;7.20;99.90
54429;DHT22;40337;52.978;6.310;2024-03-06T10:24:49;7.20;99.90
54429;DHT22;40337;52.978;6.310;2024-03-06T10:27:16;7.20;99.90
54429;DHT22;40337;52.978;6.310;2024-03-06T10:29:43;7.30;99.90
54429;DHT22;40337;52.978;6.310;2024-03-06T10:32:08;7.30;99.90
54429;DHT22;40337;52.978;6.310;2024-03-06T10:34:36;7.30;99.90
54429;DHT22;40337;52.978;6.310;2024-03-06T10:37:02;7.40;99.90
54429;DHT22;40337;52.978;6.310;2024-03-06T10:39:36;7.40;99.90
54429;DHT22;40337;52.978;6.310;2024-03-06T10:42:06;7.40;99.90
54429;DHT22;40337;52.978;6.310;2024-03-06T10:44:34;7.40;99.90
54429;DHT22;40337;52.978;6.310;2024-03-06T10:47:01;7.40;99.90
54429;DHT22;40337;52.978;6.310;2024-03-06T10:49:29;7.50;99.90
54429;DHT22;40337;52.978;6.310;2024-03-06T10:52:01;7.40;99.90
54429;DHT22;40337;52.978;6.310;2024-03-06T10:54:29;7.50;99.90
54429;DHT22;40337;52.978;6.310;2024-03-06T10:57:01;7.60;99.90
54429;DHT22;40337;52.978;6.310;2024-03-06T10:59:28;7.60;99.90
54429;DHT22;40337;52.978;6.310;2024-03-06T11:02:00;7.60;99.90
54429;DHT22;40337;52.978;6.310;2024-03-06T11:04:27;7.60;99.90
54429;DHT22;40337;52.978;6.310;2024-03-06T11:07:03;7.60;99.90
54429;DHT22;40337;52.978;6.310;2024-03-06T11:09:36;7.70;99.90
54429;DHT22;40337;52.978;6.310;2024-03-06T11:12:04;7.70;99.90
54429;DHT22;40337;52.978;6.310;2024-03-06T11:14:33;7.70;99.90
54429;DHT22;40337;52.978;6.310;2024-03-06T11:17:06;7.70;99.90
54429;DHT22;40337;52.978;6.310;2024-03-06T11:28:20;7.70;99.90
54429;DHT22;40337;52.978;6.310;2024-03-06T11:31:02;7.70;99.90
54429;DHT22;40337;52.978;6.310;2024-03-06T11:33:39;7.80;99.90
54429;DHT22;40337;52.978;6.310;2024-03-06T11:36:27;7.80;99.90
54429;DHT22;40337;52.978;6.310;2024-03-06T11:39:03;7.80;99.90
54429;DHT22;40337;52.978;6.310;2024-03-06T11:41:31;7.80;99.90
54429;DHT22;40337;52.978;6.310;2024-03-06T11:43:59;7.80;99.90
54429;DHT22;40337;52.978;6.310;2024-03-06T11:46:56;7.80;99.90
54429;DHT22;40337;52.978;6.310;2024-03-06T11:49:24;7.80;99.90
54429;DHT22;40337;52.978;6.310;2024-03-06T11:51:55;7.70;99.90
54429;DHT22;40337;52.978;6.310;2024-03-06T11:54:23;7.80;99.90
54429;DHT22;40337;52.978;6.310;2024-03-06T11:56:51;7.80;99.90
54429;DHT22;40337;52.978;6.310;2024-03-06T11:59:17;7.80;99.90
54429;DHT22;40337;52.978;6.310;2024-03-06T12:01:43;7.80;99.90
54429;DHT22;40337;52.978;6.310;2024-03-06T12:04:09;7.80;99.90
54429;DHT22;40337;52.978;6.310;2024-03-06T12:06:36;7.80;99.90
54429;DHT22;40337;52.978;6.310;2024-03-06T12:09:02;7.80;99.90
54429;DHT22;40337;52.978;6.310;2024-03-06T12:11:29;7.80;99.90
54429;DHT22;40337;52.978;6.310;2024-03-06T12:13:56;7.80;99.90
54429;DHT22;40337;52.978;6.310;2024-03-06T12:16:22;7.80;99.90
54429;DHT22;40337;52.978;6.310;2024-03-06T12:18:54;7.80;99.90
54429;DHT22;40337;52.978;6.310;2024-03-06T12:21:32;7.80;99.90
54429;DHT22;40337;52.978;6.310;2024-03-06T12:24:07;7.80;99.90
54429;DHT22;40337;52.978;6.310;2024-03-06T12:26:33;7.80;99.90
54429;DHT22;40337;52.978;6.310;2024-03-06T12:29:09;7.80;99.90
54429;DHT22;40337;52.978;6.310;2024-03-06T12:31:37;7.90;99.90
54429;DHT22;40337;52.978;6.310;2024-03-06T12:34:03;7.90;99.90
54429;DHT22;40337;52.978;6.310;2024-03-06T12:36:30;7.90;99.90
54429;DHT22;40337;52.978;6.310;2024-03-06T12:38:59;7.90;99.90
54429;DHT22;40337;52.978;6.310;2024-03-06T12:41:26;8.00;99.90
54429;DHT22;40337;52.978;6.310;2024-03-06T12:43:52;8.00;99.90
54429;DHT22;40337;52.978;6.310;2024-03-06T12:46:19;8.00;99.90
54429;DHT22;40337;52.978;6.310;2024-03-06T12:48:45;8.10;99.90
54429;DHT22;40337;52.978;6.310;2024-03-06T12:51:11;8.10;99.90
54429;DHT22;40337;52.978;6.310;2024-03-06T12:53:37;8.20;99.90
54429;DHT22;40337;52.978;6.310;2024-03-06T12:56:03;8.20;99.90
54429;DHT22;40337;52.978;6.310;2024-03-06T12:58:29;8.30;99.90
54429;DHT22;40337;52.978;6.310;2024-03-06T13:00:57;8.30;99.90
54429;DHT22;40337;52.978;6.310;2024-03-06T13:03:23;8.40;99.90
54429;DHT22;40337;52.978;6.310;2024-03-06T13:05:49;8.40;99.90
54429;DHT22;40337;52.978;6.310;2024-03-06T13:08:15;8.40;99.90
54429;DHT22;40337;52.978;6.310;2024-03-06T13:10:42;8.50;99.90
54429;DHT22;40337;52.978;6.310;2024-03-06T13:13:08;8.50;99.90
54429;DHT22;40337;52.978;6.310;2024-03-06T13:15:34;8.50;99.90
54429;DHT22;40337;52.978;6.310;2024-03-06T13:18:00;8.60;99.90
54429;DHT22;40337;52.978;6.310;2024-03-06T13:20:29;8.60;99.90
54429;DHT22;40337;52.978;6.310;2024-03-06T13:22:56;8.60;99.90
54429;DHT22;40337;52.978;6.310;2024-03-06T13:25:22;8.60;99.90
54429;DHT22;40337;52.978;6.310;2024-03-06T13:27:47;8.70;99.90
54429;DHT22;40337;52.978;6.310;2024-03-06T13:30:13;8.70;99.90
54429;DHT22;40337;52.978;6.310;2024-03-06T13:32:39;8.70;99.90
54429;DHT22;40337;52.978;6.310;2024-03-06T13:35:05;8.80;99.90
54429;DHT22;40337;52.978;6.310;2024-03-06T13:37:38;8.80;99.90
54429;DHT22;40337;52.978;6.310;2024-03-06T13:40:06;8.90;99.90
54429;DHT22;40337;52.978;6.310;2024-03-06T13:42:32;9.00;99.90
54429;DHT22;40337;52.978;6.310;2024-03-06T13:44:58;9.20;99.90
54429;DHT22;40337;52.978;6.310;2024-03-06T13:47:24;9.30;99.90
54429;DHT22;40337;52.978;6.310;2024-03-06T13:49:50;9.40;99.90
54429;DHT22;40337;52.978;6.310;2024-03-06T13:52:16;9.50;99.90
54429;DHT22;40337;52.978;6.310;2024-03-06T13:54:46;9.70;99.90
54429;DHT22;40337;52.978;6.310;2024-03-06T13:57:12;9.90;99.90
54429;DHT22;40337;52.978;6.310;2024-03-06T13:59:38;9.90;99.90
54429;DHT22;40337;52.978;6.310;2024-03-06T14:02:03;10.00;99.90
54429;DHT22;40337;52.978;6.310;2024-03-06T14:04:29;10.10;99.90
54429;DHT22;40337;52.978;6.310;2024-03-06T14:06:56;10.20;99.90
54429;DHT22;40337;52.978;6.310;2024-03-06T14:09:25;10.20;99.90
54429;DHT22;40337;52.978;6.310;2024-03-06T14:11:51;10.40;99.90
54429;DHT22;40337;52.978;6.310;2024-03-06T14:14:17;10.40;99.90
54429;DHT22;40337;52.978;6.310;2024-03-06T14:16:43;10.50;99.90
54429;DHT22;40337;52.978;6.310;2024-03-06T14:19:09;10.60;99.90
54429;DHT22;40337;52.978;6.310;2024-03-06T14:21:36;10.60;99.90
54429;DHT22;40337;52.978;6.310;2024-03-06T14:24:02;10.70;99.90
54429;DHT22;40337;52.978;6.310;2024-03-06T14:26:30;10.70;99.90
54429;DHT22;40337;52.978;6.310;2024-03-06T14:28:56;10.70;99.90
54429;DHT22;40337;52.978;6.310;2024-03-06T14:31:22;10.70;99.90
54429;DHT22;40337;52.978;6.310;2024-03-06T14:33:48;10.70;99.90
54429;DHT22;40337;52.978;6.310;2024-03-06T14:36:16;10.80;99.90
54429;DHT22;40337;52.978;6.310;2024-03-06T14:38:42;10.90;99.90
54429;DHT22;40337;52.978;6.310;2024-03-06T14:41:07;10.90;99.90
54429;DHT22;40337;52.978;6.310;2024-03-06T14:43:35;10.90;99.90
54429;DHT22;40337;52.978;6.310;2024-03-06T14:46:01;10.80;99.90
54429;DHT22;40337;52.978;6.310;2024-03-06T14:48:27;11.00;99.90
54429;DHT22;40337;52.978;6.310;2024-03-06T14:50:52;11.30;99.90
54429;DHT22;40337;52.978;6.310;2024-03-06T14:53:18;11.40;99.90
54429;DHT22;40337;52.978;6.310;2024-03-06T14:55:44;11.60;99.90
54429;DHT22;40337;52.978;6.310;2024-03-06T14:58:10;11.60;99.90
54429;DHT22;40337;52.978;6.310;2024-03-06T15:00:35;11.70;99.90
54429;DHT22;40337;52.978;6.310;2024-03-06T15:03:01;11.60;99.90
54429;DHT22;40337;52.978;6.310;2024-03-06T15:05:27;11.60;99.90
54429;DHT22;40337;52.978;6.310;2024-03-06T15:07:53;11.50;99.90
54429;DHT22;40337;52.978;6.310;2024-03-06T15:10:19;11.40;99.90
54429;DHT22;40337;52.978;6.310;2024-03-06T15:12:45;11.40;99.90
54429;DHT22;40337;52.978;6.310;2024-03-06T15:15:11;11.50;99.90
54429;DHT22;40337;52.978;6.310;2024-03-06T15:17:37;11.60;99.90
54429;DHT22;40337;52.978;6.310;2024-03-06T15:20:08;11.70;99.90
54429;DHT22;40337;52.978;6.310;2024-03-06T15:22:37;11.70;99.90
54429;DHT22;40337;52.978;6.310;2024-03-06T15:25:08;11.80;99.90
54429;DHT22;40337;52.978;6.310;2024-03-06T15:27:35;11.80;99.90
54429;DHT22;40337;52.978;6.310;2024-03-06T15:30:02;11.80;99.90
54429;DHT22;40337;52.978;6.310;2024-03-06T15:32:28;11.80;99.90
54429;DHT22;40337;52.978;6.310;2024-03-06T15:34:54;11.70;99.90
54429;DHT22;40337;52.978;6.310;2024-03-06T15:37:22;11.60;99.90
54429;DHT22;40337;52.978;6.310;2024-03-06T15:39:54;11.50;99.90
54429;DHT22;40337;52.978;6.310;2024-03-06T15:42:23;11.50;99.90
54429;DHT22;40337;52.978;6.310;2024-03-06T15:44:53;11.40;99.90
54429;DHT22;40337;52.978;6.310;2024-03-06T15:47:20;11.40;99.90
54429;DHT22;40337;52.978;6.310;2024-03-06T15:49:46;11.30;99.90
54429;DHT22;40337;52.978;6.310;2024-03-06T15:52:12;11.20;99.90